createdAt,value
2022-10-28T00:01:18.114Z,11.56
2022-10-28T00:03:47.888Z,11.71
2022-10-28T00:06:17.506Z,11.75
2022-10-28T00:08:44.485Z,11.90
2022-10-28T00:11:14.314Z,11.97
2022-10-28T00:13:43.202Z,11.97
2022-10-28T00:16:13.343Z,11.89
2022-10-28T00:18:40.222Z,11.78
2022-10-28T00:21:18.639Z,11.76
2022-10-28T00:23:45.800Z,11.80
2022-10-28T00:26:20.936Z,11.82
2022-10-28T00:28:53.346Z,11.88
2022-10-28T00:31:21.578Z,11.89
2022-10-28T00:33:48.492Z,11.92
2022-10-28T00:36:20.525Z,11.82
2022-10-28T00:38:49.026Z,11.87
2022-10-28T00:41:19.906Z,11.84
2022-10-28T00:43:51.888Z,11.76
2022-10-28T00:46:32.077Z,11.82
2022-10-28T00:49:05.291Z,11.80
2022-10-28T00:51:35.522Z,11.84
2022-10-28T00:54:03.760Z,11.92
2022-10-28T00:56:33.790Z,12.01
2022-10-28T00:59:04.293Z,11.98
2022-10-28T01:01:30.834Z,11.94
2022-10-28T01:03:57.994Z,12.01
2022-10-28T01:06:26.727Z,11.96
2022-10-28T01:08:57.450Z,11.82
2022-10-28T01:11:51.246Z,11.88
2022-10-28T01:14:48.240Z,12.06
2022-10-28T01:17:46.712Z,11.97
2022-10-28T01:20:41.631Z,12.00
2022-10-28T01:23:15.481Z,11.83
2022-10-28T01:26:19.517Z,11.96
2022-10-28T01:29:04.657Z,12.07
2022-10-28T01:31:46.753Z,12.12
2022-10-28T01:34:32.404Z,12.08
2022-10-28T01:37:27.997Z,12.04
2022-10-28T01:40:12.350Z,11.93
2022-10-28T01:42:46.293Z,11.86
2022-10-28T01:45:33.996Z,11.89
2022-10-28T01:48:02.565Z,11.89
2022-10-28T01:50:57.989Z,11.80
2022-10-28T01:53:29.266Z,11.80
2022-10-28T01:55:59.014Z,11.84
2022-10-28T01:58:30.466Z,11.71
2022-10-28T02:00:59.739Z,11.90
2022-10-28T02:03:27.425Z,11.90
2022-10-28T02:05:56.411Z,11.83
2022-10-28T02:08:34.355Z,11.90
2022-10-28T02:11:00.737Z,11.98
2022-10-28T02:13:54.805Z,11.94
2022-10-28T02:16:36.656Z,12.06
2022-10-28T02:19:33.545Z,12.08
2022-10-28T02:22:21.015Z,12.16
2022-10-28T02:25:09.536Z,12.11
2022-10-28T02:27:57.326Z,12.01
2022-10-28T02:30:28.607Z,12.18
2022-10-28T02:32:59.107Z,12.26
2022-10-28T02:35:33.306Z,12.27
2022-10-28T02:38:03.589Z,12.47
2022-10-28T02:40:32.793Z,12.53
2022-10-28T02:43:03.773Z,12.52
2022-10-28T02:45:41.726Z,12.38
2022-10-28T02:48:21.902Z,12.29
2022-10-28T02:51:00.453Z,12.35
2022-10-28T02:53:32.308Z,12.19
2022-10-28T02:56:02.506Z,12.25
2022-10-28T02:58:29.625Z,12.22
2022-10-28T03:00:56.147Z,12.32
2022-10-28T03:03:22.793Z,12.09
2022-10-28T03:05:49.263Z,12.09
2022-10-28T03:08:15.694Z,12.22
2022-10-28T03:10:42.157Z,12.25
2022-10-28T03:13:08.721Z,12.24
2022-10-28T03:15:35.210Z,12.36
2022-10-28T03:18:01.642Z,12.39
2022-10-28T03:20:28.135Z,12.36
2022-10-28T03:22:55.006Z,12.29
2022-10-28T03:25:21.630Z,12.30
2022-10-28T03:27:48.142Z,12.32
2022-10-28T03:30:14.745Z,12.32
2022-10-28T03:32:42.823Z,12.25
2022-10-28T03:35:09.584Z,12.27
2022-10-28T03:37:36.179Z,12.30
2022-10-28T03:40:07.717Z,12.18
2022-10-28T03:42:35.453Z,12.01
2022-10-28T03:45:04.432Z,11.96
2022-10-28T03:47:30.893Z,11.99
2022-10-28T03:49:57.345Z,11.82
2022-10-28T03:52:23.811Z,11.84
2022-10-28T03:54:50.269Z,12.01
2022-10-28T03:57:16.897Z,12.00
2022-10-28T03:59:43.354Z,11.85
2022-10-28T04:02:10.096Z,11.77
2022-10-28T04:04:36.675Z,11.69
2022-10-28T04:07:03.507Z,11.74
2022-10-28T04:09:29.951Z,11.81
2022-10-28T04:11:56.457Z,11.62
2022-10-28T04:14:22.965Z,11.49
2022-10-28T04:16:49.408Z,11.59
2022-10-28T04:19:15.894Z,11.78
2022-10-28T04:21:42.592Z,11.63
2022-10-28T04:24:09.185Z,11.61
2022-10-28T04:26:35.646Z,11.58
2022-10-28T04:29:02.070Z,11.50
2022-10-28T04:31:28.491Z,11.56
2022-10-28T04:33:54.935Z,11.57
2022-10-28T04:36:21.377Z,11.50
2022-10-28T04:38:47.885Z,11.36
2022-10-28T04:41:15.095Z,11.34
2022-10-28T04:43:41.512Z,11.29
2022-10-28T04:46:07.990Z,11.26
2022-10-28T04:48:34.692Z,11.23
2022-10-28T04:51:01.534Z,11.36
2022-10-28T04:53:27.974Z,11.38
2022-10-28T04:55:57.944Z,11.35
2022-10-28T04:58:25.294Z,11.46
2022-10-28T05:00:51.804Z,11.33
2022-10-28T05:03:18.262Z,11.46
2022-10-28T05:05:44.699Z,11.45
2022-10-28T05:08:11.423Z,11.54
2022-10-28T05:10:37.895Z,11.63
2022-10-28T05:13:04.485Z,11.63
2022-10-28T05:15:31.362Z,11.70
2022-10-28T05:17:57.872Z,11.56
2022-10-28T05:20:24.614Z,11.59
2022-10-28T05:22:53.780Z,11.53
2022-10-28T05:25:21.618Z,11.53
2022-10-28T05:27:48.122Z,11.52
2022-10-28T05:30:15.151Z,11.59
2022-10-28T05:32:41.909Z,11.58
2022-10-28T05:35:08.988Z,11.71
2022-10-28T05:37:35.871Z,11.65
2022-10-28T05:40:02.885Z,11.78
2022-10-28T05:42:29.456Z,11.76
2022-10-28T05:44:55.878Z,11.69
2022-10-28T05:47:22.350Z,11.62
2022-10-28T05:49:48.825Z,11.61
2022-10-28T05:52:15.252Z,11.61
2022-10-28T05:54:41.682Z,11.66
2022-10-28T05:57:08.750Z,11.74
2022-10-28T05:59:35.187Z,11.66
2022-10-28T06:02:01.654Z,11.60
2022-10-28T06:04:28.157Z,11.61
2022-10-28T06:06:56.213Z,11.56
2022-10-28T06:09:22.699Z,11.44
2022-10-28T06:11:47.601Z,11.45
2022-10-28T06:14:14.077Z,11.43
2022-10-28T06:16:40.598Z,11.40
2022-10-28T06:19:07.033Z,11.39
2022-10-28T06:21:33.468Z,11.29
2022-10-28T06:23:59.954Z,11.38
2022-10-28T06:26:26.429Z,11.43
2022-10-28T06:28:52.857Z,11.49
2022-10-28T06:31:19.353Z,11.47
2022-10-28T06:33:45.810Z,11.59
2022-10-28T06:36:12.248Z,11.48
2022-10-28T06:38:38.727Z,11.64
2022-10-28T06:41:05.243Z,11.72
2022-10-28T06:43:31.692Z,11.70
2022-10-28T06:46:02.339Z,11.64
2022-10-28T06:48:30.489Z,11.70
2022-10-28T06:50:58.015Z,11.62
2022-10-28T06:53:25.387Z,11.69
2022-10-28T06:55:53.341Z,11.77
2022-10-28T06:58:19.835Z,11.80
2022-10-28T07:00:46.711Z,11.93
2022-10-28T07:03:14.722Z,12.03
2022-10-28T07:05:41.539Z,12.04
2022-10-28T07:08:08.037Z,12.04
2022-10-28T07:10:34.626Z,12.09
2022-10-28T07:13:01.109Z,11.94
2022-10-28T07:15:27.641Z,11.93
2022-10-28T07:17:55.388Z,11.93
2022-10-28T07:20:23.667Z,12.01
2022-10-28T07:23:02.874Z,12.10
2022-10-28T07:25:30.947Z,12.23
2022-10-28T07:27:58.585Z,12.27
2022-10-28T07:30:25.385Z,12.38
2022-10-28T07:32:52.627Z,12.39
2022-10-28T07:35:19.934Z,12.47
2022-10-28T07:37:46.694Z,12.49
2022-10-28T07:40:13.948Z,12.64
2022-10-28T07:42:40.509Z,12.87
2022-10-28T07:45:07.341Z,12.84
2022-10-28T07:47:33.862Z,12.99
2022-10-28T07:50:00.293Z,13.09
2022-10-28T07:52:26.800Z,13.13
2022-10-28T07:54:53.317Z,13.12
2022-10-28T07:57:20.738Z,13.02
2022-10-28T07:59:47.276Z,13.23
2022-10-28T08:02:19.325Z,13.40
2022-10-28T08:04:45.929Z,13.42
2022-10-28T08:07:13.510Z,13.53
2022-10-28T08:09:40.478Z,13.41
2022-10-28T08:12:08.029Z,13.39
2022-10-28T08:14:34.893Z,13.39
2022-10-28T08:17:01.501Z,13.53
2022-10-28T08:19:27.945Z,13.61
2022-10-28T08:21:54.385Z,13.54
2022-10-28T08:24:20.995Z,13.48
2022-10-28T08:26:47.459Z,13.54
2022-10-28T08:29:13.956Z,13.50
2022-10-28T08:31:40.994Z,13.61
2022-10-28T08:34:07.784Z,13.62
2022-10-28T08:36:34.426Z,13.65
2022-10-28T08:39:01.813Z,13.52
2022-10-28T08:41:38.915Z,13.60
2022-10-28T08:44:24.264Z,13.72
2022-10-28T08:47:08.208Z,14.00
2022-10-28T08:49:39.136Z,14.14
2022-10-28T08:52:09.981Z,14.16
2022-10-28T08:54:47.161Z,14.30
2022-10-28T08:57:20.443Z,14.52
2022-10-28T08:59:51.958Z,14.50
2022-10-28T09:02:23.299Z,14.53
2022-10-28T09:04:58.463Z,14.72
2022-10-28T09:07:25.627Z,14.84
2022-10-28T09:09:53.584Z,14.75
2022-10-28T09:12:47.437Z,14.75
2022-10-28T09:15:33.126Z,14.95
2022-10-28T09:18:09.128Z,15.44
2022-10-28T09:20:54.484Z,16.03
2022-10-28T09:23:33.693Z,16.33
2022-10-28T09:26:28.320Z,16.71
2022-10-28T09:29:20.734Z,16.80
2022-10-28T09:31:53.724Z,17.11
2022-10-28T09:34:35.382Z,17.32
2022-10-28T09:37:26.417Z,17.95
2022-10-28T09:40:02.622Z,18.37
2022-10-28T09:42:35.039Z,18.78
2022-10-28T09:45:12.734Z,18.89
2022-10-28T09:47:44.292Z,19.15
2022-10-28T09:50:31.857Z,19.43
2022-10-28T09:53:04.456Z,19.63
2022-10-28T09:55:32.613Z,19.83
2022-10-28T09:57:59.545Z,20.56
2022-10-28T10:00:26.159Z,21.05
2022-10-28T10:02:57.585Z,21.04
2022-10-28T10:05:25.377Z,21.83
2022-10-28T10:07:56.560Z,22.08
2022-10-28T10:10:27.124Z,22.08
2022-10-28T10:12:59.523Z,22.63
2022-10-28T10:15:32.272Z,22.42
2022-10-28T10:18:02.101Z,21.63
2022-10-28T10:20:39.831Z,20.86
2022-10-28T10:23:27.152Z,20.81
2022-10-28T10:26:06.834Z,20.37
2022-10-28T10:28:39.846Z,20.27
2022-10-28T10:31:16.171Z,20.45
2022-10-28T10:33:42.689Z,20.71
2022-10-28T10:36:23.103Z,21.59
2022-10-28T10:38:54.855Z,22.07
2022-10-28T10:41:50.891Z,21.81
2022-10-28T10:44:23.143Z,21.12
2022-10-28T10:47:06.270Z,20.95
2022-10-28T10:49:35.228Z,21.49
2022-10-28T10:52:04.840Z,22.47
2022-10-28T10:54:33.274Z,22.61
2022-10-28T10:57:20.656Z,22.90
2022-10-28T10:59:50.772Z,23.92
2022-10-28T11:02:36.926Z,24.96
2022-10-28T11:05:07.800Z,25.67
2022-10-28T11:07:34.584Z,25.29
2022-10-28T11:10:01.927Z,25.30
2022-10-28T11:12:35.088Z,25.44
2022-10-28T11:15:16.726Z,25.79
2022-10-28T11:18:17.000Z,26.15
2022-10-28T11:20:54.869Z,26.90
2022-10-28T11:23:48.939Z,26.87
2022-10-28T11:26:17.213Z,26.53
2022-10-28T11:28:49.719Z,25.66
2022-10-28T11:31:34.230Z,26.72
2022-10-28T11:34:22.950Z,27.03
2022-10-28T11:37:15.327Z,27.33
2022-10-28T11:39:41.732Z,26.40
2022-10-28T11:42:16.053Z,26.72
2022-10-28T11:44:51.741Z,27.19
2022-10-28T11:47:27.014Z,27.39
2022-10-28T11:50:11.230Z,27.18
2022-10-28T11:52:59.554Z,26.25
2022-10-28T11:55:35.044Z,25.70
2022-10-28T11:58:24.532Z,25.28
2022-10-28T12:01:07.276Z,24.45
2022-10-28T12:03:40.663Z,24.75
2022-10-28T12:06:42.884Z,24.32
2022-10-28T12:09:24.314Z,24.28
2022-10-28T12:12:15.230Z,24.20
2022-10-28T12:15:11.324Z,23.98
2022-10-28T12:17:47.709Z,23.86
2022-10-28T12:20:24.421Z,23.64
2022-10-28T12:22:58.988Z,23.60
2022-10-28T12:25:29.239Z,23.30
2022-10-28T12:30:52.796Z,22.86
2022-10-28T12:33:27.568Z,22.86
2022-10-28T12:36:27.243Z,22.61
2022-10-28T12:39:06.698Z,22.70
2022-10-28T12:42:14.961Z,22.89
2022-10-28T12:44:42.516Z,22.89
2022-10-28T12:47:16.718Z,22.92
2022-10-28T12:50:01.601Z,22.79
2022-10-28T12:52:31.003Z,23.26
2022-10-28T12:55:30.913Z,23.42
2022-10-28T12:58:10.460Z,23.49
2022-10-28T13:00:43.083Z,23.34
2022-10-28T13:03:14.433Z,23.68
2022-10-28T13:06:27.581Z,23.84
2022-10-28T13:09:39.129Z,23.80
2022-10-28T13:12:21.331Z,23.82
2022-10-28T13:14:50.892Z,23.31
2022-10-28T13:17:44.492Z,23.27
2022-10-28T13:20:20.279Z,23.13
2022-10-28T13:23:05.538Z,23.19
2022-10-28T13:25:47.181Z,23.09
2022-10-28T13:28:16.680Z,22.50
2022-10-28T13:30:58.559Z,22.38
2022-10-28T13:33:27.635Z,22.55
2022-10-28T13:36:06.503Z,22.43
2022-10-28T13:38:33.641Z,22.20
2022-10-28T13:41:00.120Z,22.49
2022-10-28T13:44:08.232Z,22.53
2022-10-28T13:46:58.992Z,22.46
2022-10-28T13:49:34.047Z,22.38
2022-10-28T13:52:06.516Z,22.32
2022-10-28T13:54:39.104Z,22.22
2022-10-28T13:57:12.725Z,22.03
2022-10-28T13:59:49.891Z,22.01
2022-10-28T14:02:39.701Z,22.03
2022-10-28T14:05:09.314Z,22.13
2022-10-28T14:07:40.053Z,21.85
2022-10-28T14:10:23.738Z,21.79
2022-10-28T14:12:55.279Z,21.41
2022-10-28T14:15:34.285Z,21.44
2022-10-28T14:18:15.696Z,20.89
2022-10-28T14:20:59.010Z,21.20
2022-10-28T14:23:28.767Z,21.04
2022-10-28T14:25:55.984Z,20.89
2022-10-28T14:28:28.803Z,21.15
2022-10-28T14:31:14.477Z,20.83
2022-10-28T14:33:44.117Z,20.44
2022-10-28T14:36:19.820Z,20.63
2022-10-28T14:39:04.376Z,20.56
2022-10-28T14:41:33.920Z,20.55
2022-10-28T14:44:18.585Z,20.50
2022-10-28T14:47:20.366Z,20.08
2022-10-28T14:50:15.466Z,19.69
2022-10-28T14:52:44.182Z,19.40
2022-10-28T14:55:31.743Z,19.45
2022-10-28T14:58:22.620Z,19.33
2022-10-28T15:01:20.223Z,19.31
2022-10-28T15:04:13.017Z,19.23
2022-10-28T15:06:46.704Z,19.51
2022-10-28T15:09:22.437Z,19.48
2022-10-28T15:11:55.784Z,19.50
2022-10-28T15:14:34.331Z,19.68
2022-10-28T15:17:12.062Z,19.35
2022-10-28T15:19:38.584Z,19.00
2022-10-28T15:22:11.162Z,18.94
2022-10-28T15:24:39.438Z,18.84
2022-10-28T15:27:11.537Z,18.71
2022-10-28T15:29:38.139Z,18.76
2022-10-28T15:32:16.046Z,18.68
2022-10-28T15:34:43.905Z,18.45
2022-10-28T15:37:10.649Z,18.39
2022-10-28T15:39:38.859Z,18.38
2022-10-28T15:42:27.936Z,18.17
2022-10-28T15:44:56.637Z,17.91
2022-10-28T15:47:25.869Z,17.91
2022-10-28T15:50:02.784Z,17.72
2022-10-28T15:52:35.376Z,17.68
2022-10-28T15:55:26.742Z,17.43
2022-10-28T15:58:23.685Z,17.24
2022-10-28T16:00:51.495Z,17.07
2022-10-28T16:03:26.441Z,16.93
2022-10-28T16:05:55.806Z,16.82
2022-10-28T16:08:28.727Z,16.83
2022-10-28T16:11:13.171Z,16.88
2022-10-28T16:13:47.077Z,17.06
2022-10-28T16:16:26.104Z,17.07
2022-10-28T16:19:10.759Z,16.94
2022-10-28T16:21:38.727Z,16.81
2022-10-28T16:24:05.505Z,16.65
2022-10-28T16:26:33.281Z,16.42
2022-10-28T16:28:59.768Z,16.31
2022-10-28T16:31:28.659Z,16.25
2022-10-28T16:33:55.292Z,16.11
2022-10-28T16:36:21.785Z,15.93
2022-10-28T16:38:48.298Z,16.01
2022-10-28T16:41:17.637Z,15.97
2022-10-28T16:43:45.133Z,15.80
2022-10-28T16:46:13.262Z,15.71
2022-10-28T16:48:40.134Z,15.62
2022-10-28T16:51:13.908Z,15.63
2022-10-28T16:53:42.501Z,15.45
2022-10-28T16:56:13.609Z,15.38
2022-10-28T16:58:45.376Z,15.47
2022-10-28T17:01:12.758Z,15.41
2022-10-28T17:03:39.244Z,15.33
2022-10-28T17:06:05.879Z,15.24
2022-10-28T17:09:00.698Z,15.07
2022-10-28T17:11:19.003Z,15.08
2022-10-28T17:13:45.470Z,15.23
2022-10-28T17:16:12.883Z,15.23
2022-10-28T17:18:39.605Z,15.07
2022-10-28T17:21:06.456Z,15.09
2022-10-28T17:23:32.946Z,15.17
2022-10-28T17:26:01.461Z,15.05
2022-10-28T17:28:28.159Z,15.00
2022-10-28T17:31:02.256Z,15.04
2022-10-28T17:33:28.875Z,14.99
2022-10-28T17:35:55.393Z,15.06
2022-10-28T17:38:21.864Z,15.02
2022-10-28T17:40:55.251Z,14.83
2022-10-28T17:43:22.876Z,14.77
2022-10-28T17:45:49.962Z,14.74
2022-10-28T17:48:16.666Z,14.65
2022-10-28T17:50:44.130Z,14.59
2022-10-28T17:53:11.632Z,14.52
2022-10-28T17:55:38.278Z,14.48
2022-10-28T17:58:04.802Z,14.46
2022-10-28T18:00:31.341Z,14.52
2022-10-28T18:02:57.910Z,14.48
2022-10-28T18:05:24.551Z,14.38
2022-10-28T18:07:55.232Z,14.36
2022-10-28T18:10:21.988Z,14.43
2022-10-28T18:12:51.255Z,14.36
2022-10-28T18:15:17.776Z,14.22
2022-10-28T18:17:49.169Z,14.24
2022-10-28T18:20:15.831Z,14.18
2022-10-28T18:22:42.325Z,14.18
2022-10-28T18:25:09.071Z,14.12
2022-10-28T18:27:35.778Z,14.10
2022-10-28T18:30:02.452Z,13.94
2022-10-28T18:32:28.922Z,13.89
2022-10-28T18:34:55.497Z,13.86
2022-10-28T18:37:21.995Z,13.72
2022-10-28T18:39:49.229Z,13.76
2022-10-28T18:42:19.342Z,13.86
2022-10-28T18:44:48.387Z,13.93
2022-10-28T18:47:14.835Z,13.93
2022-10-28T18:49:41.528Z,13.82
2022-10-28T18:52:07.994Z,13.77
2022-10-28T18:54:34.488Z,13.71
2022-10-28T18:57:00.949Z,13.78
2022-10-28T18:59:27.434Z,13.82
2022-10-28T19:01:53.979Z,13.72
2022-10-28T19:04:20.728Z,13.61
2022-10-28T19:06:47.246Z,13.46
2022-10-28T19:09:13.766Z,13.49
2022-10-28T19:11:40.283Z,13.40
2022-10-28T19:14:07.034Z,13.42
2022-10-28T19:16:34.442Z,13.40
2022-10-28T19:19:02.794Z,13.34
2022-10-28T19:21:29.565Z,13.36
2022-10-28T19:23:56.291Z,13.20
2022-10-28T19:26:23.195Z,13.20
2022-10-28T19:28:51.481Z,13.19
2022-10-28T19:31:23.641Z,13.10
2022-10-28T19:33:51.719Z,13.12
2022-10-28T19:36:21.337Z,13.07
2022-10-28T19:38:49.205Z,12.86
2022-10-28T19:41:21.830Z,12.93
2022-10-28T19:43:49.753Z,12.85
2022-10-28T19:46:20.201Z,12.84
2022-10-28T19:48:49.563Z,12.94
2022-10-28T19:51:19.484Z,12.90
2022-10-28T19:53:50.717Z,12.87
2022-10-28T19:56:19.313Z,12.95
2022-10-28T19:58:47.232Z,12.91
2022-10-28T20:01:14.342Z,12.93
2022-10-28T20:03:45.038Z,12.82
2022-10-28T20:06:15.231Z,12.75
2022-10-28T20:08:44.122Z,12.66
2022-10-28T20:11:13.497Z,12.65
2022-10-28T20:13:40.176Z,12.56
2022-10-28T20:16:12.542Z,12.54
2022-10-28T20:18:39.761Z,12.45
2022-10-28T20:21:16.942Z,12.49
2022-10-28T20:23:45.276Z,12.43
2022-10-28T20:26:13.283Z,12.65
2022-10-28T20:28:40.250Z,12.49
2022-10-28T20:31:09.204Z,12.58
2022-10-28T20:33:41.372Z,12.59
2022-10-28T20:36:28.190Z,12.29
2022-10-28T20:38:56.926Z,12.17
2022-10-28T20:41:24.540Z,12.20
2022-10-28T20:43:51.752Z,12.16
2022-10-28T20:46:20.312Z,12.05
2022-10-28T20:48:48.046Z,12.08
2022-10-28T20:51:14.861Z,12.13
2022-10-28T20:53:41.944Z,11.93
2022-10-28T20:56:15.356Z,11.96
2022-10-28T20:58:41.924Z,11.97
2022-10-28T21:01:15.904Z,11.96
2022-10-28T21:03:43.451Z,11.98
2022-10-28T21:06:10.633Z,12.18
2022-10-28T21:08:37.401Z,12.29
2022-10-28T21:11:05.422Z,12.29
2022-10-28T21:13:32.272Z,12.04
2022-10-28T21:15:59.011Z,11.89
2022-10-28T21:18:25.613Z,11.83
2022-10-28T21:20:59.753Z,11.84
2022-10-28T21:23:27.864Z,11.73
2022-10-28T21:25:59.823Z,11.60
2022-10-28T21:28:28.589Z,11.52
2022-10-28T21:31:06.828Z,11.69
2022-10-28T21:33:34.838Z,11.57
2022-10-28T21:36:04.562Z,11.54
2022-10-28T21:38:31.082Z,11.43
2022-10-28T21:41:02.747Z,11.48
2022-10-28T21:43:31.865Z,11.66
2022-10-28T21:45:58.669Z,11.68
2022-10-28T21:48:25.857Z,11.63
2022-10-28T21:50:54.108Z,11.50
2022-10-28T21:53:21.397Z,11.57
2022-10-28T21:55:49.986Z,11.76
2022-10-28T21:58:18.241Z,11.55
2022-10-28T22:00:45.581Z,11.66
2022-10-28T22:03:13.308Z,11.64
2022-10-28T22:05:39.794Z,11.43
2022-10-28T22:08:06.360Z,11.41
2022-10-28T22:10:32.890Z,11.55
2022-10-28T22:12:59.346Z,11.34
2022-10-28T22:15:25.791Z,11.36
2022-10-28T22:17:52.526Z,11.23
2022-10-28T22:20:19.254Z,11.24
2022-10-28T22:22:45.845Z,11.17
2022-10-28T22:25:12.293Z,11.22
2022-10-28T22:27:38.917Z,11.43
2022-10-28T22:30:05.876Z,11.63
2022-10-28T22:32:32.413Z,11.54
2022-10-28T22:34:58.871Z,11.61
2022-10-28T22:37:25.387Z,11.68
2022-10-28T22:39:51.836Z,11.72
2022-10-28T22:42:18.322Z,11.90
2022-10-28T22:44:44.839Z,11.88
2022-10-28T22:47:11.439Z,11.88
2022-10-28T22:49:37.905Z,11.80
2022-10-28T22:52:04.469Z,11.67
2022-10-28T22:54:30.932Z,11.44
2022-10-28T22:56:57.450Z,11.34
2022-10-28T22:59:24.017Z,11.23
2022-10-28T23:01:52.043Z,11.14
2022-10-28T23:04:18.566Z,11.17
2022-10-28T23:06:45.112Z,11.11
2022-10-28T23:09:11.542Z,11.15
2022-10-28T23:11:38.061Z,11.16
2022-10-28T23:14:04.528Z,10.99
2022-10-28T23:16:31.020Z,11.15
2022-10-28T23:19:00.566Z,11.21
2022-10-28T23:21:27.912Z,11.24
2022-10-28T23:23:59.987Z,11.27
2022-10-28T23:26:28.163Z,11.28
2022-10-28T23:28:57.135Z,11.18
2022-10-28T23:31:24.253Z,11.02
2022-10-28T23:33:52.209Z,11.03
2022-10-28T23:36:18.773Z,11.05
2022-10-28T23:38:45.237Z,11.13
2022-10-28T23:41:16.029Z,11.15
2022-10-28T23:43:42.856Z,11.17
2022-10-28T23:46:09.943Z,11.01
2022-10-28T23:48:36.497Z,10.99
2022-10-28T23:51:03.521Z,11.17
2022-10-28T23:53:30.664Z,11.05
2022-10-28T23:55:57.669Z,10.91
2022-10-28T23:58:24.400Z,10.80
